Time;durP1;ratioP1;P1;durP2;ratioP2;P2;SDS_P1;SDS_P2;PMS_P1;PMS_P2;Temp;Humidity;BMP_temperature;BMP_pressure;BME280_temperature;BME280_humidity;BME280_pressure;Samples;Min_cycle;Max_cycle;Signal;HPM_P1;HPM_P2
2020/05/22 00:00:00;;;;;;;8.200001;7.5;;;;;;;11.69;67.13086;95698.32;;;;
2020/05/22 00:01:52;;;;;;;8.200001;7.5;;;;;;;11.69;67.13086;95698.32;;;;
2020/05/22 00:03:11;;;;;;;8.199999;7.400001;;;;;;;11.76;67.41992;95691.88;;;;
2020/05/22 00:04:17;;;;;;;8.199999;7.400001;;;;;;;11.76;67.41992;95691.88;;;;
2020/05/22 00:05:22;;;;;;;8.199999;7.400001;;;;;;;11.76;67.41992;95691.88;;;;
2020/05/22 00:06:29;;;;;;;8.199999;7.400001;;;;;;;11.76;67.41992;95691.88;;;;
2020/05/22 00:12:44;;;;;;;8.199999;7.400001;;;;;;;11.76;67.41992;95691.88;;;;
2020/05/22 00:13:45;;;;;;;8.85;8.050001;;;;;;;11.65;67.72559;95685.92;;;;
2020/05/22 00:14:46;;;;;;;8.85;8.050001;;;;;;;11.65;67.72559;95685.92;;;;
2020/05/22 00:15:47;;;;;;;8.85;8.050001;;;;;;;11.65;67.72559;95685.92;;;;
2020/05/22 00:17:01;;;;;;;8.85;8.050001;;;;;;;11.65;67.72559;95685.92;;;;
2020/05/22 00:18:10;;;;;;;8.85;8.050001;;;;;;;11.65;67.72559;95685.92;;;;
2020/05/22 00:19:16;;;;;;;8.85;8.050001;;;;;;;11.65;67.72559;95685.92;;;;
2020/05/22 00:20:21;;;;;;;8.85;8.050001;;;;;;;11.65;67.72559;95685.92;;;;
2020/05/22 00:21:22;;;;;;;8.85;8.050001;;;;;;;11.65;67.72559;95685.92;;;;
2020/05/22 00:22:23;;;;;;;8.85;8.050001;;;;;;;11.65;67.72559;95685.92;;;;
2020/05/22 00:23:24;;;;;;;8.85;8.050001;;;;;;;11.65;67.72559;95685.92;;;;
2020/05/22 00:24:24;;;;;;;9.1;8.299999;;;;;;;11.59;68.22168;95681.81;;;;
2020/05/22 00:25:25;;;;;;;9.1;8.299999;;;;;;;11.59;68.22168;95681.81;;;;
2020/05/22 00:26:25;;;;;;;9.1;8.299999;;;;;;;11.59;68.22168;95681.81;;;;
2020/05/22 00:27:30;;;;;;;9.1;8.299999;;;;;;;11.59;68.22168;95681.81;;;;
2020/05/22 00:28:35;;;;;;;9.1;8.299999;;;;;;;11.59;68.22168;95681.81;;;;
2020/05/22 00:29:36;;;;;;;9.1;8.299999;;;;;;;11.59;68.22168;95681.81;;;;
2020/05/22 00:30:37;;;;;;;9.1;8.299999;;;;;;;11.59;68.22168;95681.81;;;;
2020/05/22 00:31:39;;;;;;;9.1;8.299999;;;;;;;11.59;68.22168;95681.81;;;;
2020/05/22 00:32:39;;;;;;;9.1;8.299999;;;;;;;11.59;68.22168;95681.81;;;;
2020/05/22 00:33:41;;;;;;;9.1;8.299999;;;;;;;11.59;68.22168;95681.81;;;;
2020/05/22 00:34:42;;;;;;;9.1;8.299998;;;;;;;11.46;68.60938;95685.65;;;;
2020/05/22 00:35:50;;;;;;;9.1;8.299998;;;;;;;11.46;68.60938;95685.65;;;;
2020/05/22 00:37:21;;;;;;;9.1;8.299998;;;;;;;11.46;68.60938;95685.65;;;;
2020/05/22 00:38:28;;;;;;;9.1;8.299998;;;;;;;11.46;68.60938;95685.65;;;;
2020/05/22 00:39:35;;;;;;;9.1;8.299998;;;;;;;11.46;68.60938;95685.65;;;;
2020/05/22 00:40:41;;;;;;;9.1;8.299998;;;;;;;11.46;68.60938;95685.65;;;;
2020/05/22 00:41:43;;;;;;;9.1;8.299998;;;;;;;11.46;68.60938;95685.65;;;;
2020/05/22 00:42:44;;;;;;;9.1;8.299998;;;;;;;11.46;68.60938;95685.65;;;;
2020/05/22 00:43:55;;;;;;;9.1;8.299998;;;;;;;11.46;68.60938;95685.65;;;;
2020/05/22 00:45:10;;;;;;;9.1;8.299998;;;;;;;11.46;68.60938;95685.65;;;;
2020/05/22 00:46:25;;;;;;;8.950001;8.249999;;;;;;;11.35;69.1709;95687.41;;;;
2020/05/22 00:47:51;;;;;;;8.950001;8.249999;;;;;;;11.35;69.1709;95687.41;;;;
2020/05/22 00:49:13;;;;;;;8.950001;8.249999;;;;;;;11.35;69.1709;95687.41;;;;
2020/05/22 00:50:26;;;;;;;8.950001;8.249999;;;;;;;11.35;69.1709;95687.41;;;;
2020/05/22 00:51:37;;;;;;;8.950001;8.249999;;;;;;;11.35;69.1709;95687.41;;;;
2020/05/22 00:52:42;;;;;;;8.950001;8.249999;;;;;;;11.35;69.1709;95687.41;;;;
2020/05/22 00:53:43;;;;;;;8.950001;8.249999;;;;;;;11.35;69.1709;95687.41;;;;
2020/05/22 00:54:52;;;;;;;8.950001;8.249999;;;;;;;11.35;69.1709;95687.41;;;;
2020/05/22 00:56:06;;;;;;;9.599999;8.799998;;;;;;;11.18;69.73438;95687.74;;;;
2020/05/22 00:57:23;;;;;;;9.599999;8.799998;;;;;;;11.18;69.73438;95687.74;;;;
2020/05/22 00:59:26;;;;;;;9.599999;8.799998;;;;;;;11.18;69.73438;95687.74;;;;
2020/05/22 01:00:38;;;;;;;9.599999;8.799998;;;;;;;11.18;69.73438;95687.74;;;;
2020/05/22 01:02:02;;;;;;;9.599999;8.799998;;;;;;;11.18;69.73438;95687.74;;;;
2020/05/22 01:03:12;;;;;;;9.599999;8.799998;;;;;;;11.18;69.73438;95687.74;;;;
2020/05/22 01:04:28;;;;;;;9.599999;8.799998;;;;;;;11.18;69.73438;95687.74;;;;
2020/05/22 01:05:32;;;;;;;9.599999;8.799998;;;;;;;11.18;69.73438;95687.74;;;;
2020/05/22 01:06:32;;;;;;;9.449999;8.599999;;;;;;;11.12;70.30469;95690.42;;;;
2020/05/22 01:07:33;;;;;;;9.449999;8.599999;;;;;;;11.12;70.30469;95690.42;;;;
2020/05/22 01:08:34;;;;;;;9.449999;8.599999;;;;;;;11.12;70.30469;95690.42;;;;
2020/05/22 01:09:37;;;;;;;9.449999;8.599999;;;;;;;11.12;70.30469;95690.42;;;;
2020/05/22 01:10:43;;;;;;;9.449999;8.599999;;;;;;;11.12;70.30469;95690.42;;;;
2020/05/22 01:12:06;;;;;;;9.449999;8.599999;;;;;;;11.12;70.30469;95690.42;;;;
2020/05/22 01:13:34;;;;;;;9.449999;8.599999;;;;;;;11.12;70.30469;95690.42;;;;
2020/05/22 01:14:53;;;;;;;9.449999;8.599999;;;;;;;11.12;70.30469;95690.42;;;;
2020/05/22 01:15:57;;;;;;;9.449999;8.599999;;;;;;;11.12;70.30469;95690.42;;;;
2020/05/22 01:17:13;;;;;;;9.449999;8.599999;;;;;;;11.12;70.30469;95690.42;;;;
2020/05/22 01:18:20;;;;;;;8.95;8.15;;;;;;;11.03;70.73047;95698.44;;;;
2020/05/22 01:24:19;;;;;;;8.95;8.15;;;;;;;11.03;70.73047;95698.44;;;;
2020/05/22 01:30:34;;;;;;;9.299999;8.500001;;;;;;;11;71.1123;95710.66;;;;
2020/05/22 01:31:42;;;;;;;9.299999;8.500001;;;;;;;11;71.1123;95710.66;;;;
2020/05/22 01:32:43;;;;;;;9.299999;8.500001;;;;;;;11;71.1123;95710.66;;;;
2020/05/22 01:33:44;;;;;;;9.299999;8.500001;;;;;;;11;71.1123;95710.66;;;;
2020/05/22 01:34:44;;;;;;;9.299999;8.500001;;;;;;;11;71.1123;95710.66;;;;
2020/05/22 01:35:45;;;;;;;9.299999;8.500001;;;;;;;11;71.1123;95710.66;;;;
2020/05/22 01:36:45;;;;;;;9.299999;8.500001;;;;;;;11;71.1123;95710.66;;;;
2020/05/22 01:37:45;;;;;;;9.299999;8.500001;;;;;;;11;71.1123;95710.66;;;;
2020/05/22 01:38:47;;;;;;;9.25;8.35;;;;;;;10.84;71.54688;95710.35;;;;
2020/05/22 01:39:51;;;;;;;9.25;8.35;;;;;;;10.84;71.54688;95710.35;;;;
2020/05/22 01:41:01;;;;;;;9.25;8.35;;;;;;;10.84;71.54688;95710.35;;;;
2020/05/22 01:42:06;;;;;;;9.25;8.35;;;;;;;10.84;71.54688;95710.35;;;;
2020/05/22 01:43:07;;;;;;;9.25;8.35;;;;;;;10.84;71.54688;95710.35;;;;
2020/05/22 01:44:07;;;;;;;9.25;8.35;;;;;;;10.84;71.54688;95710.35;;;;
2020/05/22 01:45:10;;;;;;;9.25;8.35;;;;;;;10.84;71.54688;95710.35;;;;
2020/05/22 01:46:12;;;;;;;9.25;8.35;;;;;;;10.84;71.54688;95710.35;;;;
2020/05/22 01:47:13;;;;;;;9.25;8.35;;;;;;;10.84;71.54688;95710.35;;;;
2020/05/22 01:48:14;;;;;;;9.25;8.35;;;;;;;10.84;71.54688;95710.35;;;;
2020/05/22 01:49:14;;;;;;;9.5;8.7;;;;;;;10.73;72.04492;95715.16;;;;
2020/05/22 01:50:15;;;;;;;9.5;8.7;;;;;;;10.73;72.04492;95715.16;;;;
2020/05/22 01:51:15;;;;;;;9.5;8.7;;;;;;;10.73;72.04492;95715.16;;;;
2020/05/22 01:52:17;;;;;;;9.5;8.7;;;;;;;10.73;72.04492;95715.16;;;;
2020/05/22 01:53:23;;;;;;;9.5;8.7;;;;;;;10.73;72.04492;95715.16;;;;
2020/05/22 01:54:26;;;;;;;9.5;8.7;;;;;;;10.73;72.04492;95715.16;;;;
2020/05/22 01:55:37;;;;;;;9.5;8.7;;;;;;;10.73;72.04492;95715.16;;;;
2020/05/22 01:56:53;;;;;;;9.5;8.7;;;;;;;10.73;72.04492;95715.16;;;;
2020/05/22 01:57:55;;;;;;;9.5;8.7;;;;;;;10.73;72.04492;95715.16;;;;
2020/05/22 01:59:01;;;;;;;9.5;8.7;;;;;;;10.73;72.04492;95715.16;;;;
2020/05/22 02:00:02;;;;;;;9.700002;8.799998;;;;;;;10.59;72.69434;95712.31;;;;
2020/05/22 02:01:05;;;;;;;9.700002;8.799998;;;;;;;10.59;72.69434;95712.31;;;;
2020/05/22 02:02:06;;;;;;;9.700002;8.799998;;;;;;;10.59;72.69434;95712.31;;;;
2020/05/22 02:03:07;;;;;;;9.700002;8.799998;;;;;;;10.59;72.69434;95712.31;;;;
2020/05/22 02:04:08;;;;;;;9.700002;8.799998;;;;;;;10.59;72.69434;95712.31;;;;
2020/05/22 02:05:16;;;;;;;9.700002;8.799998;;;;;;;10.59;72.69434;95712.31;;;;
2020/05/22 02:06:17;;;;;;;9.700002;8.799998;;;;;;;10.59;72.69434;95712.31;;;;
2020/05/22 02:07:25;;;;;;;9.700002;8.799998;;;;;;;10.59;72.69434;95712.31;;;;
2020/05/22 02:08:29;;;;;;;9.700002;8.799998;;;;;;;10.59;72.69434;95712.31;;;;
2020/05/22 02:09:29;;;;;;;9.700002;8.799998;;;;;;;10.59;72.69434;95712.31;;;;
2020/05/22 02:10:35;;;;;;;9.400001;8.6;;;;;;;10.61;73.17871;95704.78;;;;
2020/05/22 02:11:40;;;;;;;9.400001;8.6;;;;;;;10.61;73.17871;95704.78;;;;
2020/05/22 02:12:40;;;;;;;9.400001;8.6;;;;;;;10.61;73.17871;95704.78;;;;
2020/05/22 02:13:41;;;;;;;9.400001;8.6;;;;;;;10.61;73.17871;95704.78;;;;
2020/05/22 02:14:41;;;;;;;9.400001;8.6;;;;;;;10.61;73.17871;95704.78;;;;
2020/05/22 02:15:43;;;;;;;9.400001;8.6;;;;;;;10.61;73.17871;95704.78;;;;
2020/05/22 02:16:44;;;;;;;9.400001;8.6;;;;;;;10.61;73.17871;95704.78;;;;
2020/05/22 02:18:23;;;;;;;9.400001;8.6;;;;;;;10.61;73.17871;95704.78;;;;
2020/05/22 02:19:31;;;;;;;9.400001;8.6;;;;;;;10.61;73.17871;95704.78;;;;
2020/05/22 02:20:39;;;;;;;9.400001;8.6;;;;;;;10.61;73.17871;95704.78;;;;
2020/05/22 02:21:40;;;;;;;8.799998;8.049999;;;;;;;10.61;73.60547;95704.91;;;;
2020/05/22 02:22:42;;;;;;;8.799998;8.049999;;;;;;;10.61;73.60547;95704.91;;;;
2020/05/22 02:23:42;;;;;;;8.799998;8.049999;;;;;;;10.61;73.60547;95704.91;;;;
2020/05/22 02:24:43;;;;;;;8.799998;8.049999;;;;;;;10.61;73.60547;95704.91;;;;
2020/05/22 02:25:44;;;;;;;8.799998;8.049999;;;;;;;10.61;73.60547;95704.91;;;;
2020/05/22 02:26:47;;;;;;;8.799998;8.049999;;;;;;;10.61;73.60547;95704.91;;;;
2020/05/22 02:27:47;;;;;;;8.799998;8.049999;;;;;;;10.61;73.60547;95704.91;;;;
2020/05/22 02:28:48;;;;;;;8.799998;8.049999;;;;;;;10.61;73.60547;95704.91;;;;
2020/05/22 02:29:48;;;;;;;8.799998;8.049999;;;;;;;10.61;73.60547;95704.91;;;;
2020/05/22 02:30:49;;;;;;;8.799998;8.049999;;;;;;;10.61;73.60547;95704.91;;;;
2020/05/22 02:31:53;;;;;;;9.349999;8.400001;;;;;;;10.65;73.98828;95700.59;;;;
2020/05/22 02:32:53;;;;;;;9.349999;8.400001;;;;;;;10.65;73.98828;95700.59;;;;
2020/05/22 02:33:54;;;;;;;9.349999;8.400001;;;;;;;10.65;73.98828;95700.59;;;;
2020/05/22 02:34:54;;;;;;;9.349999;8.400001;;;;;;;10.65;73.98828;95700.59;;;;
2020/05/22 02:35:55;;;;;;;9.349999;8.400001;;;;;;;10.65;73.98828;95700.59;;;;
2020/05/22 02:37:01;;;;;;;9.349999;8.400001;;;;;;;10.65;73.98828;95700.59;;;;
2020/05/22 02:38:04;;;;;;;9.349999;8.400001;;;;;;;10.65;73.98828;95700.59;;;;
2020/05/22 02:39:06;;;;;;;9.349999;8.400001;;;;;;;10.65;73.98828;95700.59;;;;
2020/05/22 02:40:07;;;;;;;9.349999;8.400001;;;;;;;10.65;73.98828;95700.59;;;;
2020/05/22 02:41:08;;;;;;;9.349999;8.400001;;;;;;;10.65;73.98828;95700.59;;;;
2020/05/22 02:42:09;;;;;;;8.5;7.7;;;;;;;10.6;74.37598;95691.52;;;;
2020/05/22 02:43:09;;;;;;;8.5;7.7;;;;;;;10.6;74.37598;95691.52;;;;
2020/05/22 02:44:10;;;;;;;8.5;7.7;;;;;;;10.6;74.37598;95691.52;;;;
2020/05/22 02:45:11;;;;;;;8.5;7.7;;;;;;;10.6;74.37598;95691.52;;;;
2020/05/22 02:46:12;;;;;;;8.5;7.7;;;;;;;10.6;74.37598;95691.52;;;;
2020/05/22 02:47:18;;;;;;;8.5;7.7;;;;;;;10.6;74.37598;95691.52;;;;
2020/05/22 02:48:28;;;;;;;8.5;7.7;;;;;;;10.6;74.37598;95691.52;;;;
2020/05/22 02:49:36;;;;;;;8.5;7.7;;;;;;;10.6;74.37598;95691.52;;;;
2020/05/22 02:50:40;;;;;;;8.5;7.7;;;;;;;10.6;74.37598;95691.52;;;;
2020/05/22 02:51:41;;;;;;;8.5;7.7;;;;;;;10.6;74.37598;95691.52;;;;
2020/05/22 02:52:42;;;;;;;9.15;8.249999;;;;;;;10.7;75.03418;95688.7;;;;
2020/05/22 02:54:00;;;;;;;9.15;8.249999;;;;;;;10.7;75.03418;95688.7;;;;
2020/05/22 02:55:02;;;;;;;9.15;8.249999;;;;;;;10.7;75.03418;95688.7;;;;
2020/05/22 02:56:03;;;;;;;9.15;8.249999;;;;;;;10.7;75.03418;95688.7;;;;
2020/05/22 02:57:06;;;;;;;9.15;8.249999;;;;;;;10.7;75.03418;95688.7;;;;
2020/05/22 02:58:06;;;;;;;9.15;8.249999;;;;;;;10.7;75.03418;95688.7;;;;
2020/05/22 02:59:07;;;;;;;9.15;8.249999;;;;;;;10.7;75.03418;95688.7;;;;
2020/05/22 03:00:07;;;;;;;9.15;8.249999;;;;;;;10.7;75.03418;95688.7;;;;
2020/05/22 03:01:12;;;;;;;9.15;8.249999;;;;;;;10.7;75.03418;95688.7;;;;
2020/05/22 03:02:15;;;;;;;9.15;8.249999;;;;;;;10.7;75.03418;95688.7;;;;
2020/05/22 03:03:16;;;;;;;8.65;7.750001;;;;;;;10.66;75.01855;95691.04;;;;
2020/05/22 03:04:16;;;;;;;8.65;7.750001;;;;;;;10.66;75.01855;95691.04;;;;
2020/05/22 03:05:17;;;;;;;8.65;7.750001;;;;;;;10.66;75.01855;95691.04;;;;
2020/05/22 03:06:17;;;;;;;8.65;7.750001;;;;;;;10.66;75.01855;95691.04;;;;
2020/05/22 03:07:20;;;;;;;8.65;7.750001;;;;;;;10.66;75.01855;95691.04;;;;
2020/05/22 03:08:21;;;;;;;8.65;7.750001;;;;;;;10.66;75.01855;95691.04;;;;
2020/05/22 03:09:21;;;;;;;8.65;7.750001;;;;;;;10.66;75.01855;95691.04;;;;
2020/05/22 03:10:22;;;;;;;8.65;7.750001;;;;;;;10.66;75.01855;95691.04;;;;
2020/05/22 03:11:22;;;;;;;8.65;7.750001;;;;;;;10.66;75.01855;95691.04;;;;
2020/05/22 03:12:23;;;;;;;8.65;7.750001;;;;;;;10.66;75.01855;95691.04;;;;
2020/05/22 03:13:23;;;;;;;8.65;7.750001;;;;;;;10.66;75.01855;95691.04;;;;
2020/05/22 03:14:24;;;;;;;8.5;7.7;;;;;;;10.68;75.41602;95698.91;;;;
2020/05/22 03:15:24;;;;;;;8.5;7.7;;;;;;;10.68;75.41602;95698.91;;;;
2020/05/22 03:16:29;;;;;;;8.5;7.7;;;;;;;10.68;75.41602;95698.91;;;;
2020/05/22 03:22:46;;;;;;;8.5;7.7;;;;;;;10.68;75.41602;95698.91;;;;
2020/05/22 03:29:00;;;;;;;8.45;7.75;;;;;;;10.59;75.66895;95694.34;;;;
2020/05/22 03:31:09;;;;;;;8.45;7.75;;;;;;;10.59;75.66895;95694.34;;;;
2020/05/22 03:32:16;;;;;;;8.45;7.75;;;;;;;10.59;75.66895;95694.34;;;;
2020/05/22 03:35:05;;;;;;;8.45;7.75;;;;;;;10.59;75.66895;95694.34;;;;
2020/05/22 03:37:17;;;;;;;10.4;8.1;;;;;;;10.58;75.94531;95693.09;;;;
2020/05/22 03:39:13;;;;;;;10.4;8.1;;;;;;;10.58;75.94531;95693.09;;;;
2020/05/22 03:40:24;;;;;;;10.4;8.1;;;;;;;10.58;75.94531;95693.09;;;;
2020/05/22 03:41:32;;;;;;;10.4;8.1;;;;;;;10.58;75.94531;95693.09;;;;
2020/05/22 03:42:33;;;;;;;10.4;8.1;;;;;;;10.58;75.94531;95693.09;;;;
2020/05/22 03:43:34;;;;;;;10.4;8.1;;;;;;;10.58;75.94531;95693.09;;;;
2020/05/22 03:44:34;;;;;;;10.4;8.1;;;;;;;10.58;75.94531;95693.09;;;;
2020/05/22 03:45:34;;;;;;;7.9;7.299999;;;;;;;10.54;76.29004;95687.04;;;;
2020/05/22 03:46:35;;;;;;;7.9;7.299999;;;;;;;10.54;76.29004;95687.04;;;;
2020/05/22 03:47:36;;;;;;;7.9;7.299999;;;;;;;10.54;76.29004;95687.04;;;;
2020/05/22 03:48:36;;;;;;;7.9;7.299999;;;;;;;10.54;76.29004;95687.04;;;;
2020/05/22 03:49:37;;;;;;;7.9;7.299999;;;;;;;10.54;76.29004;95687.04;;;;
2020/05/22 03:50:37;;;;;;;7.9;7.299999;;;;;;;10.54;76.29004;95687.04;;;;
2020/05/22 03:51:38;;;;;;;7.9;7.299999;;;;;;;10.54;76.29004;95687.04;;;;
2020/05/22 03:52:39;;;;;;;7.9;7.299999;;;;;;;10.54;76.29004;95687.04;;;;
2020/05/22 03:53:40;;;;;;;7.9;7.299999;;;;;;;10.54;76.29004;95687.04;;;;
2020/05/22 03:54:40;;;;;;;7.9;7.299999;;;;;;;10.54;76.29004;95687.04;;;;
2020/05/22 03:55:41;;;;;;;7.9;7.299999;;;;;;;10.54;76.29004;95687.04;;;;
2020/05/22 03:56:41;;;;;;;8.549999;7.550001;;;;;;;10.68;76.50781;95689.45;;;;
2020/05/22 03:57:41;;;;;;;8.549999;7.550001;;;;;;;10.68;76.50781;95689.45;;;;
2020/05/22 03:58:42;;;;;;;8.549999;7.550001;;;;;;;10.68;76.50781;95689.45;;;;
2020/05/22 03:59:42;;;;;;;8.549999;7.550001;;;;;;;10.68;76.50781;95689.45;;;;
2020/05/22 04:00:43;;;;;;;8.549999;7.550001;;;;;;;10.68;76.50781;95689.45;;;;
2020/05/22 04:01:43;;;;;;;8.549999;7.550001;;;;;;;10.68;76.50781;95689.45;;;;
2020/05/22 04:02:57;;;;;;;8.549999;7.550001;;;;;;;10.68;76.50781;95689.45;;;;
2020/05/22 04:04:01;;;;;;;8.549999;7.550001;;;;;;;10.68;76.50781;95689.45;;;;
2020/05/22 04:05:02;;;;;;;8.549999;7.550001;;;;;;;10.68;76.50781;95689.45;;;;
2020/05/22 04:06:03;;;;;;;8.549999;7.550001;;;;;;;10.68;76.50781;95689.45;;;;
2020/05/22 04:07:04;;;;;;;8.150002;7.349999;;;;;;;10.88;76.65039;95696.26;;;;
2020/05/22 04:08:04;;;;;;;8.150002;7.349999;;;;;;;10.88;76.65039;95696.26;;;;
2020/05/22 04:09:04;;;;;;;8.150002;7.349999;;;;;;;10.88;76.65039;95696.26;;;;
2020/05/22 04:10:06;;;;;;;8.150002;7.349999;;;;;;;10.88;76.65039;95696.26;;;;
2020/05/22 04:11:06;;;;;;;8.150002;7.349999;;;;;;;10.88;76.65039;95696.26;;;;
2020/05/22 04:12:07;;;;;;;8.150002;7.349999;;;;;;;10.88;76.65039;95696.26;;;;
2020/05/22 04:13:07;;;;;;;8.150002;7.349999;;;;;;;10.88;76.65039;95696.26;;;;
2020/05/22 04:14:08;;;;;;;8.150002;7.349999;;;;;;;10.88;76.65039;95696.26;;;;
2020/05/22 04:15:08;;;;;;;8.150002;7.349999;;;;;;;10.88;76.65039;95696.26;;;;
2020/05/22 04:16:18;;;;;;;8.150002;7.349999;;;;;;;10.88;76.65039;95696.26;;;;
2020/05/22 04:17:27;;;;;;;8.299999;7.5;;;;;;;11.17;76.46484;95703.55;;;;
2020/05/22 04:18:28;;;;;;;8.299999;7.5;;;;;;;11.17;76.46484;95703.55;;;;
2020/05/22 04:19:29;;;;;;;8.299999;7.5;;;;;;;11.17;76.46484;95703.55;;;;
2020/05/22 04:20:29;;;;;;;8.299999;7.5;;;;;;;11.17;76.46484;95703.55;;;;
2020/05/22 04:21:29;;;;;;;8.299999;7.5;;;;;;;11.17;76.46484;95703.55;;;;
2020/05/22 04:22:30;;;;;;;8.299999;7.5;;;;;;;11.17;76.46484;95703.55;;;;
2020/05/22 04:23:30;;;;;;;8.299999;7.5;;;;;;;11.17;76.46484;95703.55;;;;
2020/05/22 04:24:31;;;;;;;8.299999;7.5;;;;;;;11.17;76.46484;95703.55;;;;
2020/05/22 04:25:32;;;;;;;8.299999;7.5;;;;;;;11.17;76.46484;95703.55;;;;
2020/05/22 04:26:32;;;;;;;8.299999;7.5;;;;;;;11.17;76.46484;95703.55;;;;
2020/05/22 04:27:33;;;;;;;8.299999;7.5;;;;;;;11.17;76.46484;95703.55;;;;
2020/05/22 04:28:34;;;;;;;8;7.3;;;;;;;11.35;76.29395;95702.69;;;;
2020/05/22 04:29:34;;;;;;;8;7.3;;;;;;;11.35;76.29395;95702.69;;;;
2020/05/22 04:30:35;;;;;;;8;7.3;;;;;;;11.35;76.29395;95702.69;;;;
2020/05/22 04:31:36;;;;;;;8;7.3;;;;;;;11.35;76.29395;95702.69;;;;
2020/05/22 04:32:36;;;;;;;8;7.3;;;;;;;11.35;76.29395;95702.69;;;;
2020/05/22 04:33:37;;;;;;;8;7.3;;;;;;;11.35;76.29395;95702.69;;;;
2020/05/22 04:34:37;;;;;;;8;7.3;;;;;;;11.35;76.29395;95702.69;;;;
2020/05/22 04:35:37;;;;;;;8;7.3;;;;;;;11.35;76.29395;95702.69;;;;
2020/05/22 04:41:52;;;;;;;7.849999;7.15;;;;;;;11.64;76.30078;95706.41;;;;
2020/05/22 04:42:53;;;;;;;7.849999;7.15;;;;;;;11.64;76.30078;95706.41;;;;
2020/05/22 04:43:53;;;;;;;7.849999;7.15;;;;;;;11.64;76.30078;95706.41;;;;
2020/05/22 04:44:54;;;;;;;7.849999;7.15;;;;;;;11.64;76.30078;95706.41;;;;
2020/05/22 04:45:54;;;;;;;7.849999;7.15;;;;;;;11.64;76.30078;95706.41;;;;
2020/05/22 04:46:54;;;;;;;7.849999;7.15;;;;;;;11.64;76.30078;95706.41;;;;
2020/05/22 04:47:55;;;;;;;7.849999;7.15;;;;;;;11.64;76.30078;95706.41;;;;
2020/05/22 04:48:56;;;;;;;7.849999;7.15;;;;;;;11.64;76.30078;95706.41;;;;
2020/05/22 04:49:56;;;;;;;7.3;6.699999;;;;;;;11.91;76.31543;95713.87;;;;
2020/05/22 04:50:56;;;;;;;7.3;6.699999;;;;;;;11.91;76.31543;95713.87;;;;
2020/05/22 04:51:57;;;;;;;7.3;6.699999;;;;;;;11.91;76.31543;95713.87;;;;
2020/05/22 04:52:57;;;;;;;7.3;6.699999;;;;;;;11.91;76.31543;95713.87;;;;
2020/05/22 04:53:58;;;;;;;7.3;6.699999;;;;;;;11.91;76.31543;95713.87;;;;
2020/05/22 04:54:58;;;;;;;7.3;6.699999;;;;;;;11.91;76.31543;95713.87;;;;
2020/05/22 04:55:59;;;;;;;7.3;6.699999;;;;;;;11.91;76.31543;95713.87;;;;
2020/05/22 04:57:00;;;;;;;7.3;6.699999;;;;;;;11.91;76.31543;95713.87;;;;
2020/05/22 04:58:01;;;;;;;7.3;6.699999;;;;;;;11.91;76.31543;95713.87;;;;
2020/05/22 04:59:01;;;;;;;7.3;6.699999;;;;;;;11.91;76.31543;95713.87;;;;
2020/05/22 05:00:02;;;;;;;7.600001;6.9;;;;;;;12.33;75.95996;95708.67;;;;
2020/05/22 05:01:03;;;;;;;7.600001;6.9;;;;;;;12.33;75.95996;95708.67;;;;
2020/05/22 05:02:04;;;;;;;7.600001;6.9;;;;;;;12.33;75.95996;95708.67;;;;
2020/05/22 05:03:05;;;;;;;7.600001;6.9;;;;;;;12.33;75.95996;95708.67;;;;
2020/05/22 05:04:05;;;;;;;7.600001;6.9;;;;;;;12.33;75.95996;95708.67;;;;
2020/05/22 05:05:06;;;;;;;7.600001;6.9;;;;;;;12.33;75.95996;95708.67;;;;
2020/05/22 05:06:07;;;;;;;7.600001;6.9;;;;;;;12.33;75.95996;95708.67;;;;
2020/05/22 05:07:08;;;;;;;7.600001;6.9;;;;;;;12.33;75.95996;95708.67;;;;
2020/05/22 05:08:09;;;;;;;7.600001;6.9;;;;;;;12.33;75.95996;95708.67;;;;
2020/05/22 05:09:09;;;;;;;7.600001;6.9;;;;;;;12.33;75.95996;95708.67;;;;
2020/05/22 05:10:10;;;;;;;7.600001;6.9;;;;;;;12.33;75.95996;95708.67;;;;
2020/05/22 05:11:10;;;;;;;7.7;6.95;;;;;;;12.83;75.37988;95716.66;;;;
2020/05/22 05:12:11;;;;;;;7.7;6.95;;;;;;;12.83;75.37988;95716.66;;;;
2020/05/22 05:13:11;;;;;;;7.7;6.95;;;;;;;12.83;75.37988;95716.66;;;;
2020/05/22 05:14:12;;;;;;;7.7;6.95;;;;;;;12.83;75.37988;95716.66;;;;
2020/05/22 05:20:26;;;;;;;7.7;6.95;;;;;;;12.83;75.37988;95716.66;;;;
2020/05/22 05:21:27;;;;;;;6.95;6.349999;;;;;;;13.5;74.66504;95725.79;;;;
2020/05/22 05:22:27;;;;;;;6.95;6.349999;;;;;;;13.5;74.66504;95725.79;;;;
2020/05/22 05:23:28;;;;;;;6.95;6.349999;;;;;;;13.5;74.66504;95725.79;;;;
2020/05/22 05:24:28;;;;;;;6.95;6.349999;;;;;;;13.5;74.66504;95725.79;;;;
2020/05/22 05:25:29;;;;;;;6.95;6.349999;;;;;;;13.5;74.66504;95725.79;;;;
2020/05/22 05:26:29;;;;;;;6.95;6.349999;;;;;;;13.5;74.66504;95725.79;;;;
2020/05/22 05:27:29;;;;;;;6.95;6.349999;;;;;;;13.5;74.66504;95725.79;;;;
2020/05/22 05:28:30;;;;;;;6.95;6.349999;;;;;;;13.5;74.66504;95725.79;;;;
2020/05/22 05:29:30;;;;;;;6.95;6.349999;;;;;;;13.5;74.66504;95725.79;;;;
2020/05/22 05:30:31;;;;;;;6.95;6.349999;;;;;;;13.5;74.66504;95725.79;;;;
2020/05/22 05:31:47;;;;;;;6.8;5.95;;;;;;;14.25;73.78809;95734.41;;;;
2020/05/22 05:38:01;;;;;;;6.8;5.95;;;;;;;14.25;73.78809;95734.41;;;;
2020/05/22 05:39:02;;;;;;;6.8;5.95;;;;;;;14.25;73.78809;95734.41;;;;
2020/05/22 05:40:05;;;;;;;6.8;5.95;;;;;;;14.25;73.78809;95734.41;;;;
2020/05/22 05:41:05;;;;;;;6.8;5.95;;;;;;;14.25;73.78809;95734.41;;;;
2020/05/22 05:42:06;;;;;;;6.2;5.600001;;;;;;;14.98;72.97949;95734.69;;;;
2020/05/22 05:43:06;;;;;;;6.2;5.600001;;;;;;;14.98;72.97949;95734.69;;;;
2020/05/22 05:44:07;;;;;;;6.2;5.600001;;;;;;;14.98;72.97949;95734.69;;;;
2020/05/22 05:45:07;;;;;;;6.2;5.600001;;;;;;;14.98;72.97949;95734.69;;;;
2020/05/22 05:46:08;;;;;;;6.2;5.600001;;;;;;;14.98;72.97949;95734.69;;;;
2020/05/22 05:47:08;;;;;;;6.2;5.600001;;;;;;;14.98;72.97949;95734.69;;;;
2020/05/22 05:48:09;;;;;;;6.2;5.600001;;;;;;;14.98;72.97949;95734.69;;;;
2020/05/22 05:49:09;;;;;;;6.2;5.600001;;;;;;;14.98;72.97949;95734.69;;;;
2020/05/22 05:50:10;;;;;;;6.2;5.600001;;;;;;;14.98;72.97949;95734.69;;;;
2020/05/22 05:51:10;;;;;;;6.2;5.600001;;;;;;;14.98;72.97949;95734.69;;;;
2020/05/22 05:52:11;;;;;;;6.2;5.600001;;;;;;;14.98;72.97949;95734.69;;;;
2020/05/22 05:53:12;;;;;;;5.749999;5.2;;;;;;;15.53;72.22754;95739.47;;;;
2020/05/22 05:54:12;;;;;;;5.749999;5.2;;;;;;;15.53;72.22754;95739.47;;;;
2020/05/22 05:55:13;;;;;;;5.749999;5.2;;;;;;;15.53;72.22754;95739.47;;;;
2020/05/22 05:56:13;;;;;;;5.749999;5.2;;;;;;;15.53;72.22754;95739.47;;;;
2020/05/22 05:57:14;;;;;;;5.749999;5.2;;;;;;;15.53;72.22754;95739.47;;;;
2020/05/22 05:58:14;;;;;;;5.749999;5.2;;;;;;;15.53;72.22754;95739.47;;;;
2020/05/22 05:59:15;;;;;;;5.749999;5.2;;;;;;;15.53;72.22754;95739.47;;;;
2020/05/22 06:00:15;;;;;;;5.749999;5.2;;;;;;;15.53;72.22754;95739.47;;;;
2020/05/22 06:01:17;;;;;;;5.749999;5.2;;;;;;;15.53;72.22754;95739.47;;;;
2020/05/22 06:02:31;;;;;;;5.749999;5.2;;;;;;;15.53;72.22754;95739.47;;;;
2020/05/22 06:03:34;;;;;;;5.5;5;;;;;;;16.3;70.9209;95732.59;;;;
2020/05/22 06:09:46;;;;;;;5.5;5;;;;;;;16.3;70.9209;95732.59;;;;
2020/05/22 06:10:46;;;;;;;5.5;5;;;;;;;16.3;70.9209;95732.59;;;;
2020/05/22 06:11:47;;;;;;;5.5;5;;;;;;;16.3;70.9209;95732.59;;;;
2020/05/22 06:12:48;;;;;;;5.5;5;;;;;;;16.3;70.9209;95732.59;;;;
2020/05/22 06:13:48;;;;;;;5.05;4.55;;;;;;;16.95;69.84961;95724.06;;;;
2020/05/22 06:14:51;;;;;;;5.05;4.55;;;;;;;16.95;69.84961;95724.06;;;;
2020/05/22 06:15:52;;;;;;;5.05;4.55;;;;;;;16.95;69.84961;95724.06;;;;
2020/05/22 06:16:52;;;;;;;5.05;4.55;;;;;;;16.95;69.84961;95724.06;;;;
2020/05/22 06:17:53;;;;;;;5.05;4.55;;;;;;;16.95;69.84961;95724.06;;;;
2020/05/22 06:18:54;;;;;;;5.05;4.55;;;;;;;16.95;69.84961;95724.06;;;;
2020/05/22 06:19:54;;;;;;;5.05;4.55;;;;;;;16.95;69.84961;95724.06;;;;
2020/05/22 06:20:55;;;;;;;5.05;4.55;;;;;;;16.95;69.84961;95724.06;;;;
2020/05/22 06:21:55;;;;;;;5.05;4.55;;;;;;;16.95;69.84961;95724.06;;;;
2020/05/22 06:22:56;;;;;;;5.05;4.55;;;;;;;16.95;69.84961;95724.06;;;;
2020/05/22 06:25:01;;;;;;;5.05;4.55;;;;;;;16.95;69.84961;95724.06;;;;
2020/05/22 06:26:02;;;;;;;5.05;4.35;;;;;;;17.7;68.50879;95725.76;;;;
2020/05/22 06:27:02;;;;;;;5.05;4.35;;;;;;;17.7;68.50879;95725.76;;;;
2020/05/22 06:28:02;;;;;;;5.05;4.35;;;;;;;17.7;68.50879;95725.76;;;;
2020/05/22 06:29:03;;;;;;;5.05;4.35;;;;;;;17.7;68.50879;95725.76;;;;
2020/05/22 06:30:03;;;;;;;5.05;4.35;;;;;;;17.7;68.50879;95725.76;;;;
2020/05/22 06:31:04;;;;;;;5.05;4.35;;;;;;;17.7;68.50879;95725.76;;;;
2020/05/22 06:32:05;;;;;;;5.05;4.35;;;;;;;17.7;68.50879;95725.76;;;;
2020/05/22 06:33:05;;;;;;;5.05;4.35;;;;;;;17.7;68.50879;95725.76;;;;
2020/05/22 06:34:06;;;;;;;5.05;4.35;;;;;;;17.7;68.50879;95725.76;;;;
2020/05/22 06:35:06;;;;;;;4.65;4.25;;;;;;;18.76;66.77148;95729.55;;;;